Time;durP1;ratioP1;P1;durP2;ratioP2;P2;SDS_P1;SDS_P2;PMS_P1;PMS_P2;Temp;Humidity;BMP_temperature;BMP_pressure;BME280_temperature;BME280_humidity;BME280_pressure;Samples;Min_cycle;Max_cycle;Signal;HPM_P1;HPM_P2
2021/12/14 00:03:40;;;;;;;18.97;15.70;;;;;;;8.51;100.00;102685.56;10545338;28;20032;-75
2021/12/14 00:08:52;;;;;;;21.27;17.73;;;;;;;8.53;100.00;102694.41;10544464;28;20080;-74
2021/12/14 00:13:59;;;;;;;24.00;17.80;;;;;;;8.52;100.00;102708.03;10543630;28;20044;-75
2021/12/14 00:19:01;;;;;;;23.75;18.17;;;;;;;8.51;100.00;102690.97;10544249;28;20111;-74
2021/12/14 00:24:09;;;;;;;25.55;19.33;;;;;;;8.47;100.00;102686.84;10544128;28;20044;-75
2021/12/14 00:29:14;;;;;;;28.05;18.60;;;;;;;8.50;100.00;102705.47;10559189;28;20031;-74
2021/12/14 00:34:22;;;;;;;24.52;18.60;;;;;;;8.51;100.00;102699.06;10540630;28;20039;-75
2021/12/14 00:39:23;;;;;;;32.05;20.17;;;;;;;8.35;100.00;102688.78;10527207;28;20031;-75
2021/12/14 00:44:23;;;;;;;26.80;19.77;;;;;;;8.45;100.00;102693.38;10541262;28;20085;-74
2021/12/14 00:49:24;;;;;;;34.90;21.63;;;;;;;8.46;100.00;102684.31;10540605;28;20046;-75
2021/12/14 00:54:25;;;;;;;26.70;20.92;;;;;;;8.49;100.00;102692.97;10541548;28;20043;-75
2021/12/14 00:59:25;;;;;;;28.35;20.80;;;;;;;8.50;100.00;102662.28;10540309;28;20028;-75
2021/12/14 01:04:39;;;;;;;28.92;21.25;;;;;;;8.42;100.00;102654.00;10540018;28;20036;-74
2021/12/14 01:09:41;;;;;;;34.13;22.83;;;;;;;8.45;100.00;102658.28;10540611;28;20028;-75
2021/12/14 01:15:11;;;;;;;33.83;23.05;;;;;;;8.44;100.00;102651.19;10541558;28;20450;-75
2021/12/14 01:20:11;;;;;;;30.13;20.80;;;;;;;8.40;100.00;102639.81;10541316;28;20032;-75
2021/12/14 01:25:15;;;;;;;31.33;23.63;;;;;;;8.30;100.00;102628.97;10556443;28;20040;-74
2021/12/14 01:30:24;;;;;;;33.50;23.80;;;;;;;8.31;100.00;102635.22;10541422;28;20044;-75
2021/12/14 01:35:28;;;;;;;33.20;26.52;;;;;;;8.31;100.00;102644.19;10541516;28;20032;-75
2021/12/14 01:45:53;;;;;;;25.73;21.88;;;;;;;8.27;100.00;102647.31;10547473;28;20036;-75
2021/12/14 01:50:57;;;;;;;28.65;23.38;;;;;;;8.28;100.00;102639.06;10530546;28;20429;-74
2021/12/14 01:56:01;;;;;;;33.42;24.90;;;;;;;8.28;100.00;102643.59;10548599;28;20379;-75
2021/12/14 02:01:37;;;;;;;32.17;24.95;;;;;;;8.29;100.00;102653.41;10548011;28;20032;-74
2021/12/14 02:06:37;;;;;;;34.45;24.40;;;;;;;8.34;100.00;102656.53;10548774;28;20097;-74
2021/12/14 02:11:49;;;;;;;29.45;24.20;;;;;;;8.30;100.00;102647.88;10548621;28;20048;-73
2021/12/14 02:16:51;;;;;;;27.92;20.40;;;;;;;8.15;100.00;102650.09;10547278;28;20395;-75
2021/12/14 02:21:51;;;;;;;40.30;23.45;;;;;;;8.24;100.00;102643.03;10563529;28;20462;-74
2021/12/14 02:26:52;;;;;;;32.85;22.88;;;;;;;8.28;100.00;102646.31;10546207;28;20066;-74
2021/12/14 02:31:54;;;;;;;29.98;22.67;;;;;;;8.27;100.00;102641.91;10545269;28;20452;-74
2021/12/14 02:36:54;;;;;;;31.77;24.10;;;;;;;8.26;100.00;102632.09;10546324;28;20437;-74
2021/12/14 02:41:56;;;;;;;29.67;22.23;;;;;;;8.18;100.00;102629.25;10545400;28;20035;-74
2021/12/14 02:46:59;;;;;;;31.30;22.98;;;;;;;8.15;100.00;102630.38;10545864;28;20038;-74
2021/12/14 02:52:03;;;;;;;27.83;21.60;;;;;;;8.15;100.00;102620.44;10546248;28;20032;-75
2021/12/14 02:57:09;;;;;;;33.42;24.83;;;;;;;8.15;100.00;102614.19;10546734;28;20027;-75
2021/12/14 03:02:18;;;;;;;31.20;23.90;;;;;;;8.10;100.00;102611.91;10546957;28;20024;-74
2021/12/14 03:07:21;;;;;;;36.13;24.35;;;;;;;8.09;100.00;102615.59;10545314;28;20081;-74
2021/12/14 03:12:39;;;;;;;27.73;20.80;;;;;;;8.03;100.00;102637.72;10545068;28;20483;-74
2021/12/14 03:17:40;;;;;;;34.65;23.38;;;;;;;8.07;100.00;102627.50;10544990;28;20559;-75
2021/12/14 03:22:47;;;;;;;30.73;22.92;;;;;;;8.04;100.00;102635.88;10544900;28;20040;-74
2021/12/14 03:27:49;;;;;;;30.85;21.63;;;;;;;8.10;100.00;102636.19;10543931;28;20129;-74
2021/12/14 03:32:50;;;;;;;25.88;20.40;;;;;;;8.11;100.00;102631.66;10547320;28;20028;-74
2021/12/14 03:37:50;;;;;;;29.17;20.55;;;;;;;8.12;100.00;102641.44;10544177;28;20024;-74
2021/12/14 03:42:50;;;;;;;25.50;20.23;;;;;;;8.14;100.00;102648.41;10527678;28;20040;-75
2021/12/14 03:47:52;;;;;;;33.70;21.25;;;;;;;8.12;100.00;102641.44;10542619;28;20028;-73
2021/12/14 03:52:53;;;;;;;31.20;23.23;;;;;;;8.14;100.00;102645.72;10543346;28;20036;-74
2021/12/14 03:57:53;;;;;;;24.63;19.73;;;;;;;8.13;100.00;102643.97;10544057;28;20036;-74
2021/12/14 04:02:54;;;;;;;25.48;17.65;;;;;;;8.12;100.00;102641.44;10543519;28;20089;-74
2021/12/14 04:07:55;;;;;;;26.73;20.25;;;;;;;8.12;100.00;102633.34;10525700;28;20035;-74
2021/12/14 04:12:56;;;;;;;23.17;18.65;;;;;;;8.11;100.00;102642.44;10544669;28;20056;-74
2021/12/14 04:17:56;;;;;;;22.95;18.42;;;;;;;8.08;100.00;102654.38;10542273;28;20401;-74
2021/12/14 04:22:56;;;;;;;27.73;18.48;;;;;;;8.06;100.00;102640.16;10542441;28;20040;-72
2021/12/14 04:27:58;;;;;;;24.65;18.50;;;;;;;8.11;100.00;102651.38;10541761;28;20111;-73
2021/12/14 04:33:00;;;;;;;21.90;17.40;;;;;;;8.07;100.00;102652.66;10540655;28;20115;-74
2021/12/14 04:38:08;;;;;;;23.90;18.95;;;;;;;8.06;100.00;102647.38;10542750;28;20379;-73
2021/12/14 04:53:51;;;;;;;24.95;18.52;;;;;;;8.00;100.00;102615.56;10540915;28;20040;-73
2021/12/14 04:58:55;;;;;;;21.50;16.63;;;;;;;7.95;100.00;102628.63;10541125;28;20036;-73
2021/12/14 05:04:02;;;;;;;20.58;16.33;;;;;;;8.00;100.00;102632.59;10541078;28;20527;-73
2021/12/14 05:09:27;;;;;;;33.22;19.95;;;;;;;7.98;100.00;102613.03;10540587;28;20036;-73
2021/12/14 05:14:28;;;;;;;21.20;16.17;;;;;;;7.98;100.00;102621.13;10540940;28;20419;-73
2021/12/14 05:19:31;;;;;;;24.02;16.92;;;;;;;7.94;100.00;102625.06;10539852;28;20046;-73
2021/12/14 05:24:31;;;;;;;22.42;17.02;;;;;;;7.94;100.00;102614.25;10540547;28;20408;-74
2021/12/14 05:29:32;;;;;;;27.33;16.63;;;;;;;7.88;100.00;102626.47;10540721;28;20036;-74
2021/12/14 05:34:32;;;;;;;29.10;19.73;;;;;;;7.93;100.00;102621.50;10539932;28;20047;-73
2021/12/14 05:45:13;;;;;;;27.08;20.50;;;;;;;7.93;100.00;102628.75;10513245;28;20116;-75
2021/12/14 05:50:25;;;;;;;27.25;19.42;;;;;;;7.92;100.00;102622.50;10542461;28;20031;-75
2021/12/14 05:55:29;;;;;;;23.60;17.10;;;;;;;8.03;100.00;102639.56;10540711;28;20032;-75
2021/12/14 06:00:29;;;;;;;42.80;18.65;;;;;;;7.99;100.00;102643.53;10539115;28;20028;-71
2021/12/14 06:05:30;;;;;;;35.42;19.27;;;;;;;8.02;100.00;102649.50;10538938;28;20040;-73
2021/12/14 06:10:31;;;;;;;26.75;18.20;;;;;;;8.04;100.00;102658.34;10536813;28;20052;-74
2021/12/14 06:15:32;;;;;;;26.67;19.17;;;;;;;8.06;100.00;102659.03;10537194;28;20079;-73
2021/12/14 06:20:32;;;;;;;23.80;17.77;;;;;;;8.04;100.00;102650.25;10538678;28;20036;-74
2021/12/14 06:25:32;;;;;;;24.67;18.63;;;;;;;8.06;100.00;102652.78;10539413;28;20470;-73
2021/12/14 06:30:34;;;;;;;28.77;19.17;;;;;;;8.05;100.00;102654.63;10541606;28;20463;-73
2021/12/14 06:35:41;;;;;;;27.40;17.00;;;;;;;8.05;100.00;102661.88;10545247;28;20040;-73
2021/12/14 06:40:42;;;;;;;;;;;;;;;8.05;100.00;102670.81;10547398;28;20043;-73
2021/12/14 06:45:55;;;;;;;25.95;18.05;;;;;;;8.01;100.00;102664.00;10563590;28;19908;-72
2021/12/14 06:51:03;;;;;;;28.83;20.02;;;;;;;8.02;100.00;102673.78;10555489;28;20035;-72
2021/12/14 06:56:06;;;;;;;27.58;20.13;;;;;;;8.06;100.00;102675.22;10547421;28;20456;-73
2021/12/14 07:01:11;;;;;;;22.15;18.88;;;;;;;8.08;100.00;102678.66;10545922;28;20078;-73
2021/12/14 07:06:32;;;;;;;28.35;18.33;;;;;;;8.07;100.00;102681.47;10544156;28;20036;-72
2021/12/14 07:11:32;;;;;;;31.05;19.30;;;;;;;8.06;100.00;102686.00;10561044;28;20055;-72
2021/12/14 07:16:37;;;;;;;33.15;21.23;;;;;;;8.07;100.00;102679.66;10543638;28;20464;-73
2021/12/14 07:21:46;;;;;;;31.25;20.67;;;;;;;8.09;100.00;102682.19;10544333;28;20031;-73
2021/12/14 07:26:50;;;;;;;31.65;20.70;;;;;;;8.07;100.00;102681.47;10543564;28;20035;-72
2021/12/14 07:31:50;;;;;;;36.28;21.17;;;;;;;8.13;100.00;102700.66;10542244;28;20378;-73
2021/12/14 07:36:51;;;;;;;29.13;22.60;;;;;;;8.14;100.00;102699.69;10542895;28;20047;-72
2021/12/14 07:41:53;;;;;;;37.35;23.50;;;;;;;8.07;100.00;102706.63;10541437;28;20032;-72
2021/12/14 07:47:08;;;;;;;31.55;21.27;;;;;;;8.09;100.00;102711.88;10543157;28;20028;-73
2021/12/14 07:52:08;;;;;;;32.78;22.83;;;;;;;8.13;100.00;102716.00;10542401;28;20125;-73
2021/12/14 07:57:23;;;;;;;40.85;22.98;;;;;;;8.09;100.00;102722.66;10542439;28;20048;-73
2021/12/14 08:02:29;;;;;;;40.42;24.23;;;;;;;8.08;100.00;102723.66;10543851;28;20422;-74
2021/12/14 08:07:38;;;;;;;48.50;24.38;;;;;;;8.11;100.00;102724.25;10542459;28;20581;-74
2021/12/14 08:12:53;;;;;;;35.53;24.23;;;;;;;8.15;100.00;102722.13;10542383;28;20050;-73
2021/12/14 08:18:02;;;;;;;33.83;24.58;;;;;;;8.20;100.00;102729.78;10541942;28;20036;-74
2021/12/14 08:23:16;;;;;;;36.00;24.77;;;;;;;8.18;100.00;102732.63;10542420;28;20082;-73
2021/12/14 08:28:21;;;;;;;41.03;26.40;;;;;;;8.26;100.00;102738.19;10541818;28;20032;-74
2021/12/14 08:33:22;;;;;;;36.42;24.67;;;;;;;8.27;100.00;102749.88;10557192;28;20426;-73
2021/12/14 08:38:23;;;;;;;38.63;21.38;;;;;;;8.33;100.00;102752.03;10540246;28;20032;-74
2021/12/14 08:43:27;;;;;;;39.92;25.35;;;;;;;8.34;100.00;102765.38;10541950;28;20083;-74
2021/12/14 08:48:37;;;;;;;35.65;25.05;;;;;;;8.34;100.00;102759.97;10538959;28;20069;-74
2021/12/14 08:53:37;;;;;;;34.78;24.40;;;;;;;8.36;100.00;102763.41;10540461;28;20032;-73
2021/12/14 08:58:38;;;;;;;31.38;22.40;;;;;;;8.39;100.00;102759.56;10540283;28;20032;-73
2021/12/14 09:03:44;;;;;;;32.72;21.35;;;;;;;8.41;100.00;102756.75;10540214;28;20491;-73
2021/12/14 09:08:45;;;;;;;36.85;26.20;;;;;;;8.39;100.00;102756.88;10557870;28;20028;-74
2021/12/14 09:13:46;;;;;;;32.38;23.85;;;;;;;8.34;100.00;102751.03;10540809;28;20044;-73
2021/12/14 09:18:52;;;;;;;32.03;23.23;;;;;;;8.37;100.00;102746.19;10555892;28;20032;-74
2021/12/14 09:23:57;;;;;;;33.67;22.67;;;;;;;8.53;100.00;102747.56;10540764;28;20035;-73
2021/12/14 09:28:58;;;;;;;31.60;22.17;;;;;;;8.55;100.00;102757.22;10540988;28;20360;-73
2021/12/14 09:33:59;;;;;;;32.45;20.88;;;;;;;8.63;100.00;102764.63;10539071;28;20560;-73
2021/12/14 09:39:07;;;;;;;27.45;20.85;;;;;;;8.71;100.00;102766.63;10539599;28;20028;-73
2021/12/14 09:44:09;;;;;;;30.70;20.05;;;;;;;8.76;100.00;102775.16;10541242;28;20050;-72
2021/12/14 09:49:10;;;;;;;34.10;20.48;;;;;;;8.73;100.00;102775.44;10538437;28;20383;-73
2021/12/14 09:54:12;;;;;;;26.02;18.27;;;;;;;8.77;100.00;102775.00;10555014;28;20040;-73
2021/12/14 09:59:13;;;;;;;28.67;19.45;;;;;;;8.79;100.00;102767.63;10538443;28;20133;-73
2021/12/14 10:04:25;;;;;;;32.28;22.17;;;;;;;8.87;100.00;102768.78;10539747;28;20221;-73
2021/12/14 10:09:27;;;;;;;31.35;20.85;;;;;;;8.99;100.00;102763.09;10547295;28;20466;-74
2021/12/14 10:14:34;;;;;;;33.28;19.95;;;;;;;9.03;100.00;102767.25;10545136;28;20059;-73
2021/12/14 10:19:34;;;;;;;30.38;20.02;;;;;;;9.10;100.00;102766.69;10548065;28;20040;-73
2021/12/14 10:24:35;;;;;;;37.92;20.33;;;;;;;9.08;100.00;102767.66;10547805;28;20058;-73
2021/12/14 10:29:35;;;;;;;28.70;20.23;;;;;;;9.01;100.00;102768.38;10549595;28;20036;-75
2021/12/14 10:34:40;;;;;;;28.58;17.80;;;;;;;8.92;100.00;102771.91;10546639;28;20032;-75
2021/12/14 10:42:40;;;;;;;29.65;19.02;;;;;;;8.90;100.00;102774.75;10528238;28;20032;-77
2021/12/14 10:45:02;;;;;;;33.15;20.92;;;;;;;8.88;100.00;102779.44;10545481;28;20040;-76
2021/12/14 10:50:06;;;;;;;36.05;21.52;;;;;;;8.90;100.00;102765.78;10545684;28;20466;-76
2021/12/14 10:55:13;;;;;;;22.55;17.30;;;;;;;8.95;100.00;102774.34;10545913;28;20028;-77
2021/12/14 11:00:30;;;;;;;31.80;20.08;;;;;;;8.93;100.00;102760.94;10562023;28;20031;-80
2021/12/14 11:05:31;;;;;;;27.02;19.25;;;;;;;8.96;100.00;102760.66;10546745;28;20375;-80
2021/12/14 11:10:34;;;;;;;38.20;19.13;;;;;;;9.02;100.00;102760.13;10544110;28;20041;-80
2021/12/14 11:15:37;;;;;;;23.40;17.48;;;;;;;9.00;100.00;102756.72;10546271;28;20178;-80
2021/12/14 11:20:41;;;;;;;19.25;17.15;;;;;;;8.97;100.00;102751.59;10548221;28;20451;-79
2021/12/14 11:25:51;;;;;;;24.80;17.08;;;;;;;9.03;100.00;102755.56;10529586;28;20084;-80
2021/12/14 11:30:54;;;;;;;42.80;20.83;;;;;;;9.06;100.00;102753.44;10546257;28;20508;-80
2021/12/14 11:35:58;;;;;;;33.92;18.60;;;;;;;9.08;100.00;102750.59;10543152;28;20456;-80
2021/12/14 11:41:13;;;;;;;41.60;17.92;;;;;;;9.13;100.00;102751.03;10543759;28;20404;-80
2021/12/14 11:46:14;;;;;;;23.70;17.58;;;;;;;9.16;100.00;102750.75;10529728;28;20080;-79
2021/12/14 11:51:15;;;;;;;21.60;15.82;;;;;;;9.19;100.00;102750.47;10543959;28;20040;-77
2021/12/14 11:56:17;;;;;;;19.42;16.92;;;;;;;9.24;100.00;102747.31;10525653;28;20475;-78
2021/12/14 12:01:40;;;;;;;19.58;14.32;;;;;;;9.28;100.00;102751.44;10543115;28;20032;-79
2021/12/14 12:09:28;;;;;;;21.23;14.80;;;;;;;9.29;100.00;102753.16;10544633;28;20028;-80
2021/12/14 12:12:12;;;;;;;28.97;15.57;;;;;;;9.31;100.00;102756.53;10542958;28;20390;-80
2021/12/14 12:17:15;;;;;;;23.83;12.52;;;;;;;9.33;100.00;102749.16;10544012;28;20044;-81
2021/12/14 12:22:15;;;;;;;18.33;13.98;;;;;;;9.37;100.00;102744.31;10544600;28;20048;-81
2021/12/14 12:27:30;;;;;;;20.90;14.52;;;;;;;9.44;100.00;102738.16;10547502;28;20036;-80
2021/12/14 12:32:30;;;;;;;17.80;12.25;;;;;;;9.47;100.00;102727.06;10545686;28;20028;-79
2021/12/14 12:37:44;;;;;;;22.88;12.55;;;;;;;9.54;100.00;102732.78;10560764;28;20047;-79
2021/12/14 12:42:45;;;;;;;22.92;14.75;;;;;;;9.65;100.00;102731.72;10558495;28;20059;-79
2021/12/14 12:47:45;;;;;;;21.17;11.60;;;;;;;9.73;100.00;102715.59;10543082;28;20024;-80
2021/12/14 12:52:45;;;;;;;22.45;13.02;;;;;;;9.73;100.00;102721.91;10543452;28;20113;-81
2021/12/14 12:57:53;;;;;;;22.90;10.35;;;;;;;9.81;100.00;102710.31;10558862;28;20387;-81
2021/12/14 13:02:59;;;;;;;21.90;11.88;;;;;;;9.84;100.00;102704.63;10542872;28;20036;-81
2021/12/14 13:08:22;;;;;;;15.57;10.75;;;;;;;9.82;100.00;102703.91;10543080;28;20080;-80
2021/12/14 13:13:24;;;;;;;23.52;13.60;;;;;;;9.85;100.00;102703.59;10544095;28;20063;-80
2021/12/14 13:18:39;;;;;;;20.05;11.68;;;;;;;9.87;100.00;102703.47;10542288;28;20031;-80
2021/12/14 13:23:49;;;;;;;25.17;12.45;;;;;;;9.87;100.00;102695.34;10523762;28;20036;-80
2021/12/14 13:28:51;;;;;;;28.20;12.75;;;;;;;9.91;100.00;102697.59;10542982;28;20028;-80
2021/12/14 13:33:52;;;;;;;13.45;8.90;;;;;;;9.99;100.00;102694.16;10542465;28;20199;-80
2021/12/14 13:38:52;;;;;;;17.55;9.38;;;;;;;10.05;100.00;102688.16;10541570;28;20040;-81
2021/12/14 13:43:53;;;;;;;16.02;9.05;;;;;;;10.10;100.00;102690.41;10541379;28;20071;-81
2021/12/14 13:48:53;;;;;;;15.88;8.98;;;;;;;10.12;100.00;102683.84;10540753;28;20028;-80
2021/12/14 13:53:55;;;;;;;15.02;11.35;;;;;;;10.23;100.00;102683.59;10541119;28;20093;-79
2021/12/14 13:58:59;;;;;;;18.08;9.93;;;;;;;10.30;100.00;102686.59;10541074;28;20444;-80
2021/12/14 14:04:05;;;;;;;10.70;7.60;;;;;;;10.35;100.00;102684.28;10523111;28;20105;-80
2021/12/14 14:09:12;;;;;;;13.75;7.68;;;;;;;10.37;100.00;102685.00;10524708;28;20031;-79
2021/12/14 14:14:16;;;;;;;10.57;6.30;;;;;;;10.41;100.00;102682.84;10541354;28;20133;-79
2021/12/14 14:19:22;;;;;;;26.85;8.98;;;;;;;10.46;100.00;102685.91;10540041;28;20479;-79
2021/12/14 14:24:31;;;;;;;13.17;6.17;;;;;;;10.39;100.00;102695.66;10540121;28;20488;-79
2021/12/14 14:29:45;;;;;;;10.98;6.03;;;;;;;10.36;100.00;102702.22;10543408;28;20028;-77
2021/12/14 14:34:54;;;;;;;16.15;5.95;;;;;;;10.39;100.00;102703.78;10542271;28;20028;-79
2021/12/14 14:40:20;;;;;;;14.60;6.82;;;;;;;10.43;100.00;102713.31;10525404;28;20111;-79
2021/12/14 14:45:22;;;;;;;19.05;6.22;;;;;;;10.40;100.00;102717.19;10540991;28;20408;-79
2021/12/14 14:50:31;;;;;;;8.43;5.35;;;;;;;10.38;100.00;102721.91;10546051;28;20028;-79
2021/12/14 14:55:47;;;;;;;7.88;6.32;;;;;;;10.29;100.00;102730.94;10554069;28;20048;-80
2021/12/14 15:00:49;;;;;;;15.33;6.83;;;;;;;10.16;100.00;102739.38;10549954;28;20044;-80
2021/12/14 15:05:53;;;;;;;14.48;6.97;;;;;;;10.19;100.00;102736.38;10550574;28;20028;-80
2021/12/14 15:10:55;;;;;;;23.90;6.68;;;;;;;10.15;100.00;102742.25;10544234;28;20121;-80
2021/12/14 15:16:02;;;;;;;14.40;7.88;;;;;;;10.12;100.00;102729.00;10546183;28;20036;-79
2021/12/14 15:21:41;;;;;;;20.00;8.00;;;;;;;10.07;100.00;102734.00;10545058;28;20031;-79
2021/12/14 15:26:41;;;;;;;12.38;6.38;;;;;;;10.06;100.00;102738.56;10545286;28;20024;-79
2021/12/14 15:31:47;;;;;;;21.80;6.50;;;;;;;10.09;100.00;102746.41;10543801;28;20031;-78
2021/12/14 15:36:48;;;;;;;23.13;7.90;;;;;;;10.08;100.00;102750.09;10543218;28;20089;-78
2021/12/14 15:41:48;;;;;;;15.15;8.23;;;;;;;10.09;100.00;102750.97;10560005;28;20093;-79
2021/12/14 15:46:50;;;;;;;25.38;8.35;;;;;;;10.04;100.00;102748.69;10544186;28;20214;-78
2021/12/14 15:51:56;;;;;;;27.80;9.27;;;;;;;10.03;100.00;102760.53;10543809;28;20127;-79
2021/12/14 15:57:19;;;;;;;13.80;7.50;;;;;;;10.01;100.00;102751.69;10543987;28;20028;-78
2021/12/14 16:02:24;;;;;;;16.73;7.43;;;;;;;10.04;100.00;102753.25;10543383;28;20032;-78
2021/12/14 16:07:33;;;;;;;8.23;7.53;;;;;;;9.99;100.00;102754.56;10543269;28;20034;-78
2021/12/14 16:17:34;;;;;;;8.75;7.18;;;;;;;9.92;100.00;102753.44;10544572;28;20044;-75
2021/12/14 16:22:35;;;;;;;21.95;9.40;;;;;;;9.85;100.00;102754.16;10527357;28;20032;-75
2021/12/14 16:27:37;;;;;;;20.38;9.90;;;;;;;9.82;100.00;102760.72;10524590;28;20127;-75
2021/12/14 16:32:37;;;;;;;20.15;9.00;;;;;;;9.81;100.00;102766.28;10540480;28;20490;-75
2021/12/14 16:37:38;;;;;;;30.65;11.13;;;;;;;9.74;100.00;102768.72;10542111;28;20035;-75
2021/12/14 16:42:38;;;;;;;16.35;10.52;;;;;;;9.75;100.00;102768.56;10523263;28;20115;-75
2021/12/14 16:47:43;;;;;;;20.17;9.98;;;;;;;9.76;100.00;102770.31;10542334;28;20031;-75
2021/12/14 16:52:44;;;;;;;38.17;9.95;;;;;;;9.76;100.00;102774.84;10540163;28;20420;-74
2021/12/14 16:57:44;;;;;;;22.75;11.05;;;;;;;9.73;100.00;102783.25;10541975;28;20085;-74
2021/12/14 17:02:45;;;;;;;19.95;11.00;;;;;;;9.75;100.00;102786.66;10541135;28;20038;-74
2021/12/14 17:07:45;;;;;;;23.70;13.35;;;;;;;9.71;100.00;102790.66;10542110;28;20032;-75
2021/12/14 17:12:47;;;;;;;22.08;13.88;;;;;;;9.72;100.00;102798.63;10540243;28;20510;-75
2021/12/14 17:17:48;;;;;;;23.45;12.90;;;;;;;9.70;100.00;102799.75;10540369;28;20060;-75
2021/12/14 17:22:48;;;;;;;20.48;11.55;;;;;;;9.71;100.00;102799.63;10541237;28;20058;-74
2021/12/14 17:27:48;;;;;;;34.55;13.60;;;;;;;9.71;100.00;102799.63;10540196;28;20036;-74
2021/12/14 17:32:49;;;;;;;43.45;15.10;;;;;;;9.74;100.00;102803.91;10540321;28;20036;-75
2021/12/14 17:37:51;;;;;;;37.45;16.75;;;;;;;9.73;100.00;102805.75;10541344;28;20031;-74
2021/12/14 17:42:54;;;;;;;20.85;13.68;;;;;;;9.73;100.00;102802.19;10540621;28;20397;-73
2021/12/14 17:47:56;;;;;;;34.45;17.98;;;;;;;9.75;100.00;102802.91;10557392;28;20097;-74
2021/12/14 17:52:59;;;;;;;37.47;15.45;;;;;;;9.76;100.00;102812.72;10539016;28;20536;-74
2021/12/14 17:58:01;;;;;;;36.30;17.52;;;;;;;9.79;100.00;102807.00;10539786;28;20028;-75
2021/12/14 18:03:06;;;;;;;31.85;14.70;;;;;;;9.82;100.00;102808.56;10539725;28;20046;-74
2021/12/14 18:08:15;;;;;;;34.13;15.73;;;;;;;9.83;100.00;102807.56;10538611;28;20043;-74
2021/12/14 18:13:25;;;;;;;26.42;13.20;;;;;;;9.85;100.00;102803.72;10540438;28;20363;-74
2021/12/14 18:23:45;;;;;;;30.48;14.98;;;;;;;9.81;100.00;102810.44;10538189;28;20036;-75
2021/12/14 18:28:54;;;;;;;34.75;17.00;;;;;;;9.81;100.00;102815.00;10546798;28;20028;-75
2021/12/14 18:34:03;;;;;;;57.58;18.70;;;;;;;9.81;100.00;102815.84;10563291;28;20031;-74
2021/12/14 18:39:12;;;;;;;31.60;18.95;;;;;;;9.83;100.00;102819.28;10548439;28;20032;-75
2021/12/14 18:44:19;;;;;;;23.48;16.95;;;;;;;9.78;100.00;102825.09;10547741;28;20028;-74
2021/12/14 18:49:40;;;;;;;31.77;18.73;;;;;;;9.83;100.00;102827.38;10529018;28;20036;-74
2021/12/14 18:54:41;;;;;;;25.67;15.07;;;;;;;9.70;100.00;102833.09;10548100;28;20476;-74
2021/12/14 18:59:42;;;;;;;30.73;19.48;;;;;;;9.74;100.00;102834.50;10546352;28;20258;-75
2021/12/14 19:04:45;;;;;;;32.60;19.02;;;;;;;9.75;100.00;102841.63;10545562;28;20047;-73
2021/12/14 19:09:48;;;;;;;29.02;17.42;;;;;;;9.75;100.00;102843.47;10547195;28;20032;-75
2021/12/14 19:14:58;;;;;;;30.80;18.75;;;;;;;9.76;100.00;102845.19;10547465;28;20052;-74
2021/12/14 19:19:59;;;;;;;36.20;19.52;;;;;;;9.73;100.00;102850.88;10544929;28;20028;-75
2021/12/14 19:25:00;;;;;;;33.22;19.77;;;;;;;9.66;100.00;102856.00;10545690;28;20036;-76
2021/12/14 19:30:05;;;;;;;68.72;22.55;;;;;;;9.65;100.00;102859.72;10548148;28;20028;-74
2021/12/14 19:35:08;;;;;;;31.83;20.33;;;;;;;9.64;100.00;102859.88;10546791;28;20085;-75
2021/12/14 19:40:19;;;;;;;47.05;22.45;;;;;;;9.62;100.00;102857.31;10544113;28;20460;-75
2021/12/14 19:45:21;;;;;;;25.90;19.02;;;;;;;9.62;100.00;102859.16;10543716;28;20088;-75
2021/12/14 19:50:27;;;;;;;41.15;20.08;;;;;;;9.61;100.00;102860.16;10543049;28;20024;-75
2021/12/14 19:55:30;;;;;;;33.67;21.77;;;;;;;9.59;100.00;102856.75;10544306;28;20028;-75
2021/12/14 20:00:48;;;;;;;35.35;23.17;;;;;;;9.60;100.00;102855.72;10543683;28;20028;-76
2021/12/14 20:05:52;;;;;;;40.03;22.10;;;;;;;9.61;100.00;102855.59;10545237;28;20085;-75
2021/12/14 20:11:02;;;;;;;41.60;22.98;;;;;;;9.57;100.00;102853.31;10541389;28;20120;-75
2021/12/14 20:16:06;;;;;;;51.53;26.33;;;;;;;9.58;100.00;102855.03;10542832;28;20052;-74
2021/12/14 20:21:23;;;;;;;40.30;23.30;;;;;;;9.63;100.00;102867.13;10542792;28;20032;-75
2021/12/14 20:26:33;;;;;;;43.13;24.90;;;;;;;9.63;100.00;102866.25;10542677;28;20164;-75
2021/12/14 20:31:36;;;;;;;44.58;22.88;;;;;;;9.67;100.00;102863.16;10559150;28;20433;-75
2021/12/14 20:36:37;;;;;;;45.63;24.92;;;;;;;9.68;100.00;102869.41;10543902;28;20031;-75
2021/12/14 20:41:46;;;;;;;55.58;27.73;;;;;;;9.68;100.00;102862.13;10541877;28;20043;-76
2021/12/14 20:46:53;;;;;;;37.60;23.30;;;;;;;9.64;100.00;102862.59;10544068;28;20027;-76
2021/12/14 20:51:59;;;;;;;46.00;26.70;;;;;;;9.61;100.00;102868.28;10542470;28;20028;-77
2021/12/14 20:57:00;;;;;;;52.40;23.35;;;;;;;9.62;100.00;102867.28;10557431;28;20063;-74
2021/12/14 21:02:04;;;;;;;47.33;26.65;;;;;;;9.55;100.00;102865.13;10541329;28;20123;-75
2021/12/14 21:07:10;;;;;;;39.58;24.92;;;;;;;9.56;100.00;102865.97;10540960;28;20032;-76
2021/12/14 21:12:14;;;;;;;43.25;28.58;;;;;;;9.58;100.00;102864.00;10540564;28;20074;-74
2021/12/14 21:17:15;;;;;;;39.30;25.90;;;;;;;9.55;100.00;102873.25;10539810;28;20036;-76
2021/12/14 21:22:36;;;;;;;38.90;25.80;;;;;;;9.54;100.00;102863.44;10540571;28;20470;-76
2021/12/14 21:27:43;;;;;;;59.17;28.23;;;;;;;9.53;100.00;102871.69;10540471;28;20035;-76
2021/12/14 21:32:47;;;;;;;49.90;26.60;;;;;;;9.51;100.00;102865.56;10541941;28;20028;-76
2021/12/14 21:37:59;;;;;;;47.88;28.48;;;;;;;9.57;100.00;102873.09;10544107;28;20044;-77
2021/12/14 21:48:36;;;;;;;50.08;27.98;;;;;;;9.52;100.00;102870.81;10543188;28;20064;-76
2021/12/14 21:53:36;;;;;;;59.92;30.08;;;;;;;9.57;100.00;102872.25;10543746;28;20036;-75
2021/12/14 21:58:37;;;;;;;52.35;27.52;;;;;;;9.60;100.00;102878.22;10543049;28;20039;-76
2021/12/14 22:03:37;;;;;;;40.72;27.25;;;;;;;9.61;100.00;102874.53;10548635;28;20067;-76
2021/12/14 22:08:39;;;;;;;37.58;26.77;;;;;;;9.57;100.00;102880.34;10549203;28;20068;-77
2021/12/14 22:13:45;;;;;;;43.67;28.52;;;;;;;9.55;100.00;102875.09;10548701;28;20048;-75
2021/12/14 22:18:47;;;;;;;39.58;27.55;;;;;;;9.58;100.00;102880.22;10549652;28;20048;-75
2021/12/14 22:23:47;;;;;;;43.75;29.17;;;;;;;9.57;100.00;102883.06;10548302;28;20044;-76
2021/12/14 22:28:48;;;;;;;46.15;26.52;;;;;;;9.55;100.00;102883.22;10548359;28;20024;-77
2021/12/14 22:33:49;;;;;;;42.58;28.90;;;;;;;9.53;100.00;102880.63;10548846;28;20387;-77
2021/12/14 22:38:53;;;;;;;44.00;28.85;;;;;;;9.58;100.00;102887.50;10548177;28;20043;-77
2021/12/14 22:44:06;;;;;;;48.95;29.30;;;;;;;9.57;100.00;102885.78;10546597;28;20039;-77
2021/12/14 22:49:14;;;;;;;45.67;27.25;;;;;;;9.62;100.00;102886.22;10547500;28;20024;-76
2021/12/14 22:54:14;;;;;;;45.22;30.45;;;;;;;9.58;100.00;102895.63;10547273;28;20028;-74
2021/12/14 22:59:15;;;;;;;52.97;31.60;;;;;;;9.60;100.00;102890.91;10529236;28;20028;-76
2021/12/14 23:04:19;;;;;;;51.25;30.90;;;;;;;9.57;100.00;102899.28;10546030;28;20028;-76
2021/12/14 23:09:38;;;;;;;45.30;29.58;;;;;;;9.59;100.00;102897.31;10544568;28;20028;-75
2021/12/14 23:14:39;;;;;;;62.33;31.58;;;;;;;9.60;100.00;102890.91;10545238;28;20052;-75
2021/12/14 23:20:29;;;;;;;52.08;32.88;;;;;;;9.60;100.00;102889.03;10547742;28;20081;-76
2021/12/14 23:25:06;;;;;;;39.78;27.58;;;;;;;9.58;100.00;102887.50;10539119;28;20055;-75
2021/12/14 23:30:16;;;;;;;50.72;32.95;;;;;;;9.54;100.00;102882.38;10527505;28;20036;-76